createdAt,value
2022-08-01T00:00:57.076Z,15.18
2022-08-01T00:02:00.528Z,21.83
2022-08-01T00:03:02.995Z,15.07
2022-08-01T00:04:12.052Z,19.45
2022-08-01T00:05:23.275Z,13.50
2022-08-01T00:06:25.467Z,16.35
2022-08-01T00:07:27.655Z,12.73
2022-08-01T00:08:33.639Z,16.38
2022-08-01T00:09:35.660Z,18.27
2022-08-01T00:10:37.740Z,16.58
2022-08-01T00:11:43.227Z,11.90
2022-08-01T00:12:46.230Z,12.60
2022-08-01T00:13:48.415Z,14.75
2022-08-01T00:14:50.706Z,13.98
2022-08-01T00:15:54.292Z,15.55
2022-08-01T00:16:56.526Z,13.65
2022-08-01T00:17:59.059Z,19.98
2022-08-01T00:20:16.934Z,17.42
2022-08-01T00:21:19.230Z,15.60
2022-08-01T00:22:21.558Z,15.73
2022-08-01T00:23:25.016Z,17.92
2022-08-01T00:24:27.174Z,12.95
2022-08-01T00:25:33.699Z,15.68
2022-08-01T00:26:36.206Z,17.50
2022-08-01T00:27:38.355Z,14.80
2022-08-01T00:28:40.867Z,17.55
2022-08-01T00:30:12.531Z,11.00
2022-08-01T00:31:05.262Z,13.85
2022-08-01T00:32:08.249Z,14.23
2022-08-01T00:33:10.477Z,17.77
2022-08-01T00:34:12.728Z,12.98
2022-08-01T00:35:17.533Z,14.02
2022-08-01T00:36:19.606Z,17.80
2022-08-01T00:37:21.954Z,16.83
2022-08-01T00:38:24.070Z,13.30
2022-08-01T00:39:26.101Z,18.88
2022-08-01T00:40:28.212Z,14.43
2022-08-01T00:41:30.337Z,17.17
2022-08-01T00:42:32.437Z,20.70
2022-08-01T00:43:35.887Z,16.15
2022-08-01T00:44:38.261Z,10.95
2022-08-01T00:45:40.562Z,10.63
2022-08-01T00:46:44.877Z,16.35
2022-08-01T00:47:46.942Z,15.23
2022-08-01T00:48:49.110Z,12.85
2022-08-01T00:49:51.228Z,14.80
2022-08-01T00:50:53.285Z,13.55
2022-08-01T00:51:56.665Z,13.20
2022-08-01T00:53:00.695Z,15.55
2022-08-01T00:54:03.028Z,12.77
2022-08-01T00:55:05.993Z,15.40
2022-08-01T00:56:10.318Z,12.10
2022-08-01T00:57:13.194Z,14.10
2022-08-01T00:58:17.921Z,13.38
2022-08-01T00:59:22.678Z,11.30
2022-08-01T01:00:27.245Z,15.35
2022-08-01T01:01:39.717Z,13.25
2022-08-01T01:02:42.272Z,12.52
2022-08-01T01:03:58.669Z,14.75
2022-08-01T01:05:02.037Z,14.57
2022-08-01T01:06:19.415Z,16.67
2022-08-01T01:07:49.961Z,14.63
2022-08-01T01:08:59.920Z,18.20
2022-08-01T01:10:22.467Z,16.45
2022-08-01T01:11:33.108Z,11.95
2022-08-01T01:12:38.903Z,15.10
2022-08-01T01:14:05.614Z,14.52
2022-08-01T01:15:19.190Z,15.93
2022-08-01T01:16:23.674Z,14.23
2022-08-01T01:17:50.946Z,18.55
2022-08-01T01:19:00.025Z,14.68
2022-08-01T01:20:04.894Z,17.95
2022-08-01T01:21:19.038Z,14.18
2022-08-01T01:22:27.243Z,15.93
2022-08-01T01:24:06.737Z,14.02
2022-08-01T01:25:37.945Z,16.05
2022-08-01T01:27:00.414Z,16.13
2022-08-01T01:28:27.829Z,14.68
2022-08-01T01:29:58.521Z,14.60
2022-08-01T01:31:02.094Z,18.90
2022-08-01T01:32:11.897Z,17.85
2022-08-01T01:33:15.599Z,21.48
2022-08-01T01:34:21.066Z,15.93
2022-08-01T01:35:27.191Z,14.60
2022-08-01T01:36:32.025Z,18.40
2022-08-01T01:37:35.434Z,14.93
2022-08-01T01:38:43.188Z,15.50
2022-08-01T01:39:54.349Z,15.55
2022-08-01T01:40:58.410Z,15.88
2022-08-01T01:42:02.225Z,16.27
2022-08-01T01:43:05.200Z,17.08
2022-08-01T01:44:09.320Z,17.40
2022-08-01T01:45:12.556Z,17.25
2022-08-01T01:46:19.573Z,18.35
2022-08-01T01:47:22.781Z,19.98
2022-08-01T01:48:26.330Z,15.75
2022-08-01T01:49:31.223Z,19.73
2022-08-01T01:50:33.936Z,14.90
2022-08-01T01:51:36.049Z,18.15
2022-08-01T01:52:42.575Z,14.45
2022-08-01T01:53:47.032Z,14.38
2022-08-01T01:54:51.803Z,16.98
2022-08-01T01:55:56.596Z,16.10
2022-08-01T01:57:02.107Z,17.77
2022-08-01T01:58:06.273Z,14.73
2022-08-01T01:59:08.730Z,18.13
2022-08-01T02:00:13.957Z,17.88
2022-08-01T02:01:17.388Z,16.63
2022-08-01T02:02:43.937Z,16.25
2022-08-01T02:03:48.054Z,18.02
2022-08-01T02:04:53.498Z,13.65
2022-08-01T02:05:57.426Z,15.65
2022-08-01T02:07:00.211Z,17.55
2022-08-01T02:08:04.639Z,16.45
2022-08-01T02:09:12.056Z,19.13
2022-08-01T02:10:18.424Z,15.60
2022-08-01T02:11:23.317Z,18.08
2022-08-01T02:12:25.970Z,16.15
2022-08-01T02:14:02.061Z,19.55
2022-08-01T02:15:05.745Z,19.05
2022-08-01T02:16:09.814Z,19.83
2022-08-01T02:17:14.333Z,18.38
2022-08-01T02:18:18.663Z,16.70
2022-08-01T02:19:26.487Z,18.95
2022-08-01T02:20:31.282Z,19.75
2022-08-01T02:21:53.450Z,17.88
2022-08-01T02:23:05.627Z,14.43
2022-08-01T02:24:15.548Z,20.05
2022-08-01T02:26:10.564Z,21.73
2022-08-01T02:27:14.858Z,15.55
2022-08-01T02:29:29.126Z,19.95
2022-08-01T02:30:37.145Z,22.80
2022-08-01T02:31:45.089Z,15.70
2022-08-01T02:33:03.315Z,17.30
2022-08-01T02:34:12.750Z,18.60
2022-08-01T02:35:21.917Z,17.67
2022-08-01T02:36:33.084Z,23.83
2022-08-01T02:37:44.342Z,17.38
2022-08-01T02:38:49.854Z,17.95
2022-08-01T02:39:55.384Z,16.20
2022-08-01T02:41:01.059Z,16.05
2022-08-01T02:42:07.599Z,17.25
2022-08-01T02:43:11.901Z,19.05
2022-08-01T02:44:21.229Z,15.23
2022-08-01T02:45:27.101Z,20.13
2022-08-01T02:46:44.380Z,17.42
2022-08-01T02:47:48.595Z,21.48
2022-08-01T02:48:53.877Z,16.17
2022-08-01T02:49:56.884Z,18.42
2022-08-01T02:51:02.669Z,17.52
2022-08-01T02:52:10.926Z,15.07
2022-08-01T02:53:15.830Z,18.60
2022-08-01T02:54:22.603Z,18.75
2022-08-01T02:55:26.114Z,16.35
2022-08-01T02:56:36.082Z,14.18
2022-08-01T02:57:51.851Z,17.33
2022-08-01T02:58:55.518Z,14.43
2022-08-01T03:00:00.681Z,17.77
2022-08-01T03:01:04.077Z,15.32
2022-08-01T03:02:08.396Z,21.48
2022-08-01T03:03:13.738Z,15.02
2022-08-01T03:04:18.981Z,14.85
2022-08-01T03:05:21.662Z,18.25
2022-08-01T03:06:25.926Z,16.65
2022-08-01T03:07:34.615Z,14.32
2022-08-01T03:08:42.360Z,13.27
2022-08-01T03:09:47.000Z,16.02
2022-08-01T03:10:50.680Z,14.45
2022-08-01T03:11:53.885Z,17.17
2022-08-01T03:13:01.474Z,18.35
2022-08-01T03:14:08.812Z,16.90
2022-08-01T03:15:13.317Z,18.38
2022-08-01T03:16:17.569Z,19.85
2022-08-01T03:17:25.948Z,25.33
2022-08-01T03:18:29.964Z,23.65
2022-08-01T03:19:34.716Z,22.58
2022-08-01T03:20:39.911Z,20.83
2022-08-01T03:21:44.431Z,21.85
2022-08-01T03:22:49.101Z,22.10
2022-08-01T03:23:55.299Z,19.35
2022-08-01T03:25:00.483Z,18.50
2022-08-01T03:26:05.314Z,21.00
2022-08-01T03:27:11.827Z,20.77
2022-08-01T03:28:18.216Z,20.88
2022-08-01T03:29:26.649Z,19.17
2022-08-01T03:30:31.064Z,17.45
2022-08-01T03:31:37.000Z,18.65
2022-08-01T03:32:39.877Z,17.65
2022-08-01T03:33:42.220Z,17.15
2022-08-01T03:34:44.632Z,18.50
2022-08-01T03:35:55.893Z,16.80
2022-08-01T03:37:08.341Z,17.10
2022-08-01T03:38:16.197Z,15.13
2022-08-01T03:39:23.741Z,15.98
2022-08-01T03:40:32.734Z,16.20
2022-08-01T03:41:41.167Z,16.40
2022-08-01T03:42:49.634Z,14.50
2022-08-01T03:44:02.387Z,17.45
2022-08-01T03:45:13.456Z,15.32
2022-08-01T03:46:25.582Z,17.92
2022-08-01T03:47:44.575Z,16.92
2022-08-01T03:48:50.292Z,16.20
2022-08-01T03:49:54.757Z,16.63
2022-08-01T03:51:00.077Z,16.55
2022-08-01T03:52:06.038Z,17.25
2022-08-01T03:53:11.149Z,15.75
2022-08-01T03:54:15.649Z,16.42
2022-08-01T03:55:19.871Z,18.00
2022-08-01T03:56:24.204Z,15.98
2022-08-01T03:57:36.778Z,18.27
2022-08-01T03:58:50.013Z,15.05
2022-08-01T03:59:53.163Z,14.55
2022-08-01T04:00:56.488Z,18.17
2022-08-01T04:01:59.958Z,17.52
2022-08-01T04:03:02.184Z,17.85
2022-08-01T04:04:06.975Z,15.90
2022-08-01T04:05:12.543Z,19.75
2022-08-01T04:06:15.247Z,14.73
2022-08-01T04:07:31.427Z,16.33
2022-08-01T04:08:37.787Z,14.27
2022-08-01T04:09:39.848Z,12.30
2022-08-01T04:10:43.523Z,11.65
2022-08-01T04:11:45.663Z,13.90
2022-08-01T04:12:48.665Z,13.65
2022-08-01T04:13:52.029Z,15.63
2022-08-01T04:14:54.261Z,12.85
2022-08-01T04:15:56.365Z,13.00
2022-08-01T04:16:58.738Z,15.65
2022-08-01T04:18:00.849Z,13.90
2022-08-01T04:19:04.141Z,13.50
2022-08-01T04:20:06.740Z,14.05
2022-08-01T04:21:08.892Z,14.80
2022-08-01T04:22:16.166Z,13.15
2022-08-01T04:23:24.550Z,13.15
2022-08-01T04:24:30.129Z,13.88
2022-08-01T04:25:37.807Z,9.85
2022-08-01T04:26:42.611Z,11.98
2022-08-01T04:27:51.137Z,11.73
2022-08-01T04:28:56.312Z,13.65
2022-08-01T04:30:00.552Z,11.93
2022-08-01T04:31:05.922Z,12.05
2022-08-01T04:32:12.614Z,7.88
2022-08-01T04:33:17.472Z,11.55
2022-08-01T04:34:24.176Z,10.57
2022-08-01T04:36:02.709Z,10.50
2022-08-01T04:36:52.702Z,8.90
2022-08-01T04:37:55.350Z,10.55
2022-08-01T04:39:01.174Z,9.13
2022-08-01T04:40:04.753Z,8.45
2022-08-01T04:41:09.927Z,9.80
2022-08-01T04:42:14.865Z,6.40
2022-08-01T04:43:17.036Z,9.43
2022-08-01T04:44:19.524Z,8.55
2022-08-01T04:45:24.998Z,10.05
2022-08-01T04:46:28.857Z,10.27
2022-08-01T04:47:31.743Z,9.90
2022-08-01T04:48:37.449Z,9.82
2022-08-01T04:49:48.943Z,6.50
2022-08-01T04:50:52.511Z,9.20
2022-08-01T04:52:01.296Z,8.43
2022-08-01T04:53:04.371Z,8.75
2022-08-01T04:54:08.520Z,8.68
2022-08-01T04:55:11.295Z,8.93
2022-08-01T04:56:14.481Z,9.15
2022-08-01T04:57:16.696Z,8.10
2022-08-01T04:58:19.266Z,7.93
2022-08-01T04:59:40.060Z,7.28
2022-08-01T05:00:42.558Z,9.38
2022-08-01T05:01:49.826Z,7.90
2022-08-01T05:02:52.163Z,7.53
2022-08-01T05:03:54.199Z,9.05
2022-08-01T05:05:01.592Z,6.53
2022-08-01T05:06:04.082Z,9.25
2022-08-01T05:07:06.222Z,7.32
2022-08-01T05:08:08.371Z,9.57
2022-08-01T05:09:10.807Z,7.18
2022-08-01T05:10:14.971Z,10.73
2022-08-01T05:11:17.022Z,5.32
2022-08-01T05:12:24.722Z,7.05
2022-08-01T05:13:27.046Z,5.90
2022-08-01T05:14:32.889Z,7.10
2022-08-01T05:15:37.853Z,6.70
2022-08-01T05:16:39.949Z,6.55
2022-08-01T05:17:45.866Z,6.93
2022-08-01T05:18:50.245Z,6.47
2022-08-01T05:19:52.429Z,6.63
2022-08-01T05:20:54.436Z,6.68
2022-08-01T05:22:01.954Z,6.28
2022-08-01T05:23:05.296Z,8.30
2022-08-01T05:24:07.766Z,6.07
2022-08-01T05:25:10.973Z,10.98
2022-08-01T05:26:15.669Z,9.18
2022-08-01T05:27:17.930Z,8.27
2022-08-01T05:28:21.487Z,8.68
2022-08-01T05:29:23.818Z,5.63
2022-08-01T05:30:26.030Z,8.23
2022-08-01T05:31:30.725Z,11.00
2022-08-01T05:32:33.234Z,9.95
2022-08-01T05:33:35.275Z,7.97
2022-08-01T05:34:38.577Z,5.43
2022-08-01T05:35:47.757Z,6.18
2022-08-01T05:36:55.312Z,6.45
2022-08-01T05:38:00.284Z,10.90
2022-08-01T05:39:02.384Z,9.15
2022-08-01T05:40:05.768Z,8.20
2022-08-01T05:41:07.849Z,9.25
2022-08-01T05:42:12.208Z,6.40
2022-08-01T05:43:14.529Z,6.80
2022-08-01T05:44:16.612Z,9.82
2022-08-01T05:45:18.649Z,9.88
2022-08-01T05:46:20.885Z,7.97
2022-08-01T05:47:25.846Z,6.03
2022-08-01T05:48:27.911Z,5.93
2022-08-01T05:49:30.018Z,8.43
2022-08-01T05:50:34.975Z,7.03
2022-08-01T05:51:39.727Z,7.25
2022-08-01T05:52:41.759Z,8.73
2022-08-01T05:53:43.938Z,7.95
2022-08-01T05:54:45.986Z,8.43
2022-08-01T05:55:48.118Z,8.85
2022-08-01T05:56:50.281Z,7.50
2022-08-01T05:57:53.271Z,6.05
2022-08-01T05:58:55.340Z,7.00
2022-08-01T05:59:57.373Z,6.65
2022-08-01T06:00:59.974Z,7.25
2022-08-01T06:02:02.347Z,7.60
2022-08-01T06:03:04.471Z,8.48
2022-08-01T06:04:06.640Z,11.10
2022-08-01T06:05:12.886Z,7.20
2022-08-01T06:06:16.161Z,6.72
2022-08-01T06:07:18.277Z,12.40
2022-08-01T06:08:20.348Z,6.70
2022-08-01T06:09:22.641Z,6.07
2022-08-01T06:10:25.060Z,7.65
2022-08-01T06:11:27.247Z,10.43
2022-08-01T06:12:32.468Z,9.00
2022-08-01T06:13:44.894Z,7.47
2022-08-01T06:14:50.784Z,7.15
2022-08-01T06:15:52.858Z,8.80
2022-08-01T06:16:55.175Z,10.77
2022-08-01T06:17:57.327Z,8.88
2022-08-01T06:18:59.494Z,8.70
2022-08-01T06:20:01.588Z,8.57
2022-08-01T06:21:05.151Z,6.35
2022-08-01T06:22:07.456Z,10.30
2022-08-01T06:23:32.253Z,6.85
2022-08-01T06:24:34.317Z,9.95
2022-08-01T06:25:36.780Z,7.55
2022-08-01T06:26:38.898Z,10.35
2022-08-01T06:27:41.090Z,7.90
2022-08-01T06:28:43.289Z,9.20
2022-08-01T06:29:50.402Z,10.45
2022-08-01T06:30:56.336Z,6.05
2022-08-01T06:31:58.630Z,12.98
2022-08-01T06:33:04.058Z,5.68
2022-08-01T06:34:08.364Z,8.60
2022-08-01T06:35:10.342Z,5.60
2022-08-01T06:36:12.409Z,7.93
2022-08-01T06:37:15.743Z,6.10
2022-08-01T06:38:17.929Z,7.10
2022-08-01T06:39:21.299Z,7.38
2022-08-01T06:40:23.762Z,7.07
2022-08-01T06:41:25.750Z,8.55
2022-08-01T06:42:27.811Z,9.40
2022-08-01T06:43:29.814Z,9.85
2022-08-01T06:44:31.915Z,10.45
2022-08-01T06:45:34.046Z,5.95
2022-08-01T06:46:36.855Z,8.00
2022-08-01T06:47:39.961Z,7.55
2022-08-01T06:48:42.287Z,9.68
2022-08-01T06:49:44.390Z,7.55
2022-08-01T06:50:46.468Z,11.43
2022-08-01T06:51:48.465Z,7.22
2022-08-01T06:52:50.587Z,6.57
2022-08-01T06:53:52.727Z,7.93
2022-08-01T06:54:55.093Z,6.60
2022-08-01T06:55:57.105Z,11.13
2022-08-01T06:57:07.211Z,9.88
2022-08-01T06:58:09.256Z,8.32
2022-08-01T06:59:11.309Z,5.78
2022-08-01T07:00:14.277Z,5.57
2022-08-01T07:01:18.541Z,6.07
2022-08-01T07:02:20.827Z,7.57
2022-08-01T07:03:22.980Z,6.78
2022-08-01T07:04:25.152Z,6.57
2022-08-01T07:05:27.856Z,5.43
2022-08-01T07:06:29.902Z,5.57
2022-08-01T07:07:32.498Z,9.27
2022-08-01T07:08:34.579Z,5.88
2022-08-01T07:09:36.668Z,7.35
2022-08-01T07:10:38.785Z,5.75
2022-08-01T07:11:41.133Z,8.85
2022-08-01T07:12:43.345Z,7.43
2022-08-01T07:13:46.926Z,5.45
2022-08-01T07:14:49.275Z,9.15
2022-08-01T07:15:51.477Z,10.20
2022-08-01T07:16:53.592Z,5.80
2022-08-01T07:17:56.002Z,7.28
2022-08-01T07:18:58.007Z,7.22
2022-08-01T07:20:00.088Z,7.70
2022-08-01T07:21:02.581Z,5.18
2022-08-01T07:22:07.345Z,10.05
2022-08-01T07:23:09.572Z,5.95
2022-08-01T07:24:15.599Z,5.25
2022-08-01T07:25:17.801Z,6.97
2022-08-01T07:26:20.248Z,6.65
2022-08-01T07:27:24.059Z,8.15
2022-08-01T07:28:28.348Z,6.10
2022-08-01T07:29:30.380Z,7.63
2022-08-01T07:30:32.467Z,8.80
2022-08-01T07:31:34.498Z,9.13
2022-08-01T07:32:36.703Z,5.28
2022-08-01T07:33:49.004Z,10.02
2022-08-01T07:34:51.938Z,6.40
2022-08-01T07:35:56.220Z,6.45
2022-08-01T07:36:58.262Z,7.40
2022-08-01T07:38:07.771Z,6.28
2022-08-01T07:39:13.200Z,7.53
2022-08-01T07:40:15.678Z,6.78
2022-08-01T07:41:17.887Z,8.75
2022-08-01T07:42:19.988Z,5.45
2022-08-01T07:43:22.120Z,4.85
2022-08-01T07:44:24.516Z,7.22
2022-08-01T07:45:31.604Z,7.25
2022-08-01T07:46:33.637Z,6.65
2022-08-01T07:47:36.467Z,5.25
2022-08-01T07:48:38.469Z,3.60
2022-08-01T07:49:41.267Z,4.00
2022-08-01T07:50:43.492Z,4.68
2022-08-01T07:52:03.777Z,5.75
2022-08-01T07:53:06.871Z,6.88
2022-08-01T07:54:08.975Z,8.13
2022-08-01T07:55:16.579Z,5.45
2022-08-01T07:56:18.929Z,7.67
2022-08-01T07:57:21.229Z,8.40
2022-08-01T07:58:23.215Z,4.32
2022-08-01T07:59:26.139Z,4.35
2022-08-01T08:00:29.567Z,5.50
2022-08-01T08:01:31.674Z,5.88
2022-08-01T08:02:33.923Z,6.68
2022-08-01T08:03:35.937Z,3.58
2022-08-01T08:04:38.057Z,3.78
2022-08-01T08:05:58.123Z,9.55
2022-08-01T08:07:02.900Z,4.63
2022-08-01T08:08:09.407Z,4.65
2022-08-01T08:09:12.297Z,5.22
2022-08-01T08:10:14.448Z,5.50
2022-08-01T08:11:16.533Z,4.68
2022-08-01T08:12:28.484Z,4.50
2022-08-01T08:13:32.185Z,4.72
2022-08-01T08:14:37.261Z,3.90
2022-08-01T08:15:39.766Z,5.65
2022-08-01T08:16:43.027Z,4.40
2022-08-01T08:17:45.038Z,5.50
2022-08-01T08:18:57.127Z,8.35
2022-08-01T08:19:59.456Z,7.32
2022-08-01T08:21:06.456Z,4.55
2022-08-01T08:22:10.369Z,6.93
2022-08-01T08:23:43.054Z,5.43
2022-08-01T08:24:46.465Z,4.72
2022-08-01T08:25:49.077Z,4.15
2022-08-01T08:26:56.906Z,6.28
2022-08-01T08:27:59.025Z,5.53
2022-08-01T08:29:01.122Z,3.67
2022-08-01T08:30:08.751Z,4.75
2022-08-01T08:31:25.273Z,5.10
2022-08-01T08:32:33.151Z,8.80
2022-08-01T08:33:35.265Z,4.75
2022-08-01T08:34:37.261Z,7.35
2022-08-01T08:35:54.014Z,5.78
2022-08-01T08:36:57.357Z,7.35
2022-08-01T08:38:01.003Z,5.32
2022-08-01T08:39:04.630Z,3.80
2022-08-01T08:40:07.860Z,4.88
2022-08-01T08:41:11.128Z,5.70
2022-08-01T08:42:14.046Z,6.40
2022-08-01T08:43:17.132Z,4.25
2022-08-01T08:44:21.320Z,5.60
2022-08-01T08:45:30.903Z,6.78
2022-08-01T08:46:49.576Z,5.95
2022-08-01T08:47:53.237Z,5.38
2022-08-01T08:48:57.093Z,6.55
2022-08-01T08:50:01.956Z,6.82
2022-08-01T08:51:07.299Z,5.40
2022-08-01T08:52:10.941Z,4.43
2022-08-01T08:53:18.361Z,6.28
2022-08-01T08:54:31.474Z,6.65
2022-08-01T08:55:55.552Z,6.68
2022-08-01T08:57:00.248Z,5.07
2022-08-01T08:58:06.948Z,4.60
2022-08-01T08:59:09.250Z,9.68
2022-08-01T09:00:13.183Z,5.43
2022-08-01T09:01:15.204Z,7.10
2022-08-01T09:02:17.235Z,6.03
2022-08-01T09:03:19.544Z,5.55
2022-08-01T09:04:26.130Z,5.13
2022-08-01T09:05:38.653Z,7.43
2022-08-01T09:06:42.104Z,5.00
2022-08-01T09:07:44.303Z,5.57
2022-08-01T09:08:47.445Z,5.55
2022-08-01T09:09:51.435Z,7.20
2022-08-01T09:10:53.668Z,4.78
2022-08-01T09:11:57.646Z,8.43
2022-08-01T09:13:12.190Z,6.05
2022-08-01T09:14:24.489Z,7.43
2022-08-01T09:15:51.298Z,4.82
2022-08-01T09:17:12.119Z,6.43
2022-08-01T09:18:37.750Z,4.97
2022-08-01T09:19:48.946Z,4.30
2022-08-01T09:20:51.057Z,4.50
2022-08-01T09:22:01.943Z,5.40
2022-08-01T09:23:04.845Z,8.07
2022-08-01T09:24:15.806Z,7.28
2022-08-01T09:25:18.692Z,6.25
2022-08-01T09:26:35.435Z,4.05
2022-08-01T09:27:44.095Z,5.75
2022-08-01T09:28:49.595Z,4.63
2022-08-01T09:30:01.379Z,5.82
2022-08-01T09:31:15.303Z,8.13
2022-08-01T09:32:22.107Z,6.72
2022-08-01T09:33:48.367Z,6.40
2022-08-01T09:34:52.839Z,5.90
2022-08-01T09:35:57.308Z,6.03
2022-08-01T09:37:02.055Z,5.47
2022-08-01T09:38:18.193Z,4.22
2022-08-01T09:39:22.748Z,6.93
2022-08-01T09:40:44.799Z,5.15
2022-08-01T09:41:47.755Z,4.95
2022-08-01T09:43:15.068Z,4.82
2022-08-01T09:44:27.466Z,9.43
2022-08-01T09:45:43.887Z,5.35
2022-08-01T09:46:53.506Z,4.18
2022-08-01T09:47:55.570Z,6.28
2022-08-01T09:49:07.349Z,3.97
2022-08-01T09:50:12.835Z,4.05
2022-08-01T09:52:00.354Z,6.00
2022-08-01T09:52:57.209Z,4.93
2022-08-01T09:54:00.457Z,5.88
2022-08-01T09:55:08.782Z,3.92
2022-08-01T09:56:12.837Z,5.70
2022-08-01T09:57:17.356Z,3.70
2022-08-01T09:58:20.951Z,6.07
2022-08-01T09:59:26.382Z,4.53
2022-08-01T10:00:45.204Z,6.95
2022-08-01T10:01:51.371Z,5.47
2022-08-01T10:02:53.596Z,4.85
2022-08-01T10:04:06.953Z,7.50
2022-08-01T10:05:18.879Z,4.22
2022-08-01T10:06:24.934Z,6.22
2022-08-01T10:07:42.773Z,7.20
2022-08-01T10:09:49.965Z,6.03
2022-08-01T10:11:13.061Z,7.13
2022-08-01T10:12:22.013Z,5.35
2022-08-01T10:13:24.260Z,5.32
2022-08-01T10:14:28.046Z,5.63
2022-08-01T10:15:36.917Z,4.68
2022-08-01T10:16:40.787Z,7.03
2022-08-01T10:17:58.650Z,7.03
2022-08-01T10:19:01.770Z,6.05
2022-08-01T10:20:05.811Z,7.35
2022-08-01T10:21:53.213Z,4.38
2022-08-01T10:22:52.283Z,6.32
2022-08-01T10:24:03.289Z,4.63
2022-08-01T10:25:42.360Z,5.45
2022-08-01T10:26:49.130Z,6.53
2022-08-01T10:27:56.138Z,6.25
2022-08-01T10:28:58.715Z,4.32
2022-08-01T10:30:14.238Z,3.90
2022-08-01T10:31:30.771Z,4.28
2022-08-01T10:32:34.391Z,4.80
2022-08-01T10:33:52.680Z,5.72
2022-08-01T10:34:56.484Z,5.18
2022-08-01T10:35:59.036Z,4.38
2022-08-01T10:37:05.637Z,6.68
2022-08-01T10:38:10.950Z,4.90
2022-08-01T10:39:19.974Z,5.45
2022-08-01T10:40:31.490Z,4.25
2022-08-01T10:41:34.942Z,4.43
2022-08-01T10:42:38.122Z,6.65
2022-08-01T10:43:40.295Z,5.00
2022-08-01T10:44:49.003Z,4.00
2022-08-01T10:45:52.349Z,5.88
2022-08-01T10:47:00.890Z,4.50
2022-08-01T10:49:13.213Z,5.88
2022-08-01T10:50:26.141Z,4.70
2022-08-01T10:51:52.500Z,3.70
2022-08-01T10:53:23.363Z,6.03
2022-08-01T10:54:40.719Z,5.80
2022-08-01T10:55:57.287Z,4.72
2022-08-01T10:57:01.474Z,3.95
2022-08-01T10:58:09.317Z,5.95
2022-08-01T10:59:49.631Z,5.93
2022-08-01T11:00:48.947Z,5.82
2022-08-01T11:02:06.006Z,6.25
2022-08-01T11:03:08.235Z,4.55
2022-08-01T11:04:18.482Z,5.85
2022-08-01T11:05:23.939Z,6.50
2022-08-01T11:06:44.274Z,6.20
2022-08-01T11:07:54.111Z,5.78
2022-08-01T11:08:57.152Z,7.13
2022-08-01T11:10:23.788Z,7.63
2022-08-01T11:11:26.717Z,4.95
2022-08-01T11:12:43.864Z,5.07
2022-08-01T11:14:09.376Z,7.13
2022-08-01T11:15:11.703Z,5.72
2022-08-01T11:16:37.405Z,4.10
2022-08-01T11:17:54.982Z,5.97
2022-08-01T11:18:57.459Z,4.72
2022-08-01T11:20:14.231Z,5.35
2022-08-01T11:21:58.063Z,6.85
2022-08-01T11:23:07.960Z,8.20
2022-08-01T11:24:10.159Z,5.57
2022-08-01T11:25:12.227Z,5.18
2022-08-01T11:26:17.568Z,5.55
2022-08-01T11:27:33.714Z,6.22
2022-08-01T11:28:36.519Z,4.85
2022-08-01T11:29:39.095Z,6.10
2022-08-01T11:30:42.242Z,5.50
2022-08-01T11:31:44.632Z,6.78
2022-08-01T11:33:11.054Z,8.73
2022-08-01T11:34:14.244Z,5.65
2022-08-01T11:35:18.994Z,6.57
2022-08-01T11:36:55.849Z,6.95
2022-08-01T11:37:46.247Z,7.60
2022-08-01T11:39:14.258Z,6.38
2022-08-01T11:40:19.341Z,5.18
2022-08-01T11:41:38.630Z,7.82
2022-08-01T11:42:41.754Z,5.57
2022-08-01T11:44:00.447Z,7.57
2022-08-01T11:45:02.689Z,6.18
2022-08-01T11:46:07.858Z,5.63
2022-08-01T11:47:11.602Z,7.22
2022-08-01T11:48:27.748Z,7.22
2022-08-01T11:49:49.394Z,7.28
2022-08-01T11:50:54.595Z,6.00
2022-08-01T11:52:10.184Z,6.68
2022-08-01T11:53:15.697Z,9.45
2022-08-01T11:54:18.007Z,7.28
2022-08-01T11:55:37.915Z,9.98
2022-08-01T11:56:47.981Z,6.22
2022-08-01T11:57:50.421Z,6.80
2022-08-01T11:59:00.550Z,5.80
2022-08-01T12:00:15.222Z,6.00
2022-08-01T12:01:20.873Z,7.15
2022-08-01T12:02:30.176Z,6.22
2022-08-01T12:03:34.530Z,6.03
2022-08-01T12:04:52.322Z,4.97
2022-08-01T12:05:58.808Z,7.28
2022-08-01T12:07:13.588Z,7.10
2022-08-01T12:08:29.444Z,6.50
2022-08-01T12:09:31.850Z,8.15
2022-08-01T12:10:49.853Z,6.97
2022-08-01T12:11:52.173Z,6.57
2022-08-01T12:13:01.498Z,7.70
2022-08-01T12:14:03.848Z,9.07
2022-08-01T12:15:10.336Z,7.10
2022-08-01T12:16:12.910Z,7.35
2022-08-01T12:17:15.579Z,8.57
2022-08-01T12:18:21.302Z,8.52
2022-08-01T12:19:25.505Z,7.97
2022-08-01T12:20:32.223Z,6.70
2022-08-01T12:21:34.526Z,7.97
2022-08-01T12:22:37.416Z,9.15
2022-08-01T12:23:39.586Z,9.00
2022-08-01T12:24:44.802Z,8.30
2022-08-01T12:25:52.514Z,7.95
2022-08-01T12:26:54.616Z,8.23
2022-08-01T12:28:01.848Z,8.52
2022-08-01T12:29:03.979Z,7.18
2022-08-01T12:30:08.583Z,8.77
2022-08-01T12:31:10.855Z,8.88
2022-08-01T12:32:35.508Z,8.85
2022-08-01T12:33:37.890Z,7.88
2022-08-01T12:34:40.063Z,7.13
2022-08-01T12:35:42.957Z,4.95
2022-08-01T12:36:45.539Z,9.77
2022-08-01T12:37:50.100Z,6.15
2022-08-01T12:38:55.434Z,6.43
2022-08-01T12:39:58.960Z,7.00
2022-08-01T12:41:01.725Z,8.45
2022-08-01T12:42:09.184Z,5.53
2022-08-01T12:43:27.272Z,3.60
2022-08-01T12:44:31.958Z,5.35
2022-08-01T12:45:54.302Z,5.68
2022-08-01T12:46:59.746Z,4.30
2022-08-01T12:48:02.765Z,6.38
2022-08-01T12:49:04.966Z,7.90
2022-08-01T12:50:12.504Z,5.22
2022-08-01T12:51:15.052Z,7.85
2022-08-01T12:52:18.587Z,5.43
2022-08-01T12:53:21.827Z,6.65
2022-08-01T12:54:26.881Z,7.40
2022-08-01T12:55:34.166Z,5.97
2022-08-01T12:56:40.241Z,5.80
2022-08-01T12:57:45.828Z,7.07
2022-08-01T12:58:48.239Z,6.72
2022-08-01T12:59:54.205Z,6.65
2022-08-01T13:01:08.411Z,5.95
2022-08-01T13:02:12.225Z,6.18
2022-08-01T13:03:18.226Z,7.47
2022-08-01T13:04:23.159Z,6.63
2022-08-01T13:05:26.386Z,5.53
2022-08-01T13:06:30.288Z,7.10
2022-08-01T13:07:45.675Z,4.85
2022-08-01T13:08:49.122Z,6.45
2022-08-01T13:09:52.238Z,5.78
2022-08-01T13:11:06.403Z,6.43
2022-08-01T13:12:11.643Z,6.68
2022-08-01T13:13:22.243Z,6.35
2022-08-01T13:14:30.718Z,6.32
2022-08-01T13:15:41.759Z,5.70
2022-08-01T13:16:56.696Z,9.35
2022-08-01T13:18:01.566Z,5.75
2022-08-01T13:19:04.057Z,7.97
2022-08-01T13:20:07.386Z,7.07
2022-08-01T13:21:23.418Z,5.78
2022-08-01T13:22:38.988Z,5.13
2022-08-01T13:24:02.085Z,7.90
2022-08-01T13:25:19.839Z,6.30
2022-08-01T13:26:48.801Z,8.55
2022-08-01T13:27:53.958Z,7.05
2022-08-01T13:29:08.847Z,7.35
2022-08-01T13:30:19.428Z,6.35
2022-08-01T13:31:33.771Z,6.90
2022-08-01T13:32:35.873Z,5.35
2022-08-01T13:33:54.299Z,7.90
2022-08-01T13:35:05.339Z,5.70
2022-08-01T13:36:07.957Z,6.03
2022-08-01T13:37:12.375Z,6.45
2022-08-01T13:38:17.592Z,4.25
2022-08-01T13:39:40.493Z,7.07
2022-08-01T13:40:42.892Z,7.53
2022-08-01T13:41:45.712Z,4.47
2022-08-01T13:42:47.768Z,5.70
2022-08-01T13:43:58.769Z,4.22
2022-08-01T13:45:03.044Z,6.93
2022-08-01T13:46:06.944Z,7.95
2022-08-01T13:47:15.323Z,6.90
2022-08-01T13:48:19.879Z,6.53
2022-08-01T13:49:22.874Z,8.80
2022-08-01T13:50:25.236Z,8.35
2022-08-01T13:51:27.351Z,6.70
2022-08-01T13:52:30.542Z,10.52
2022-08-01T13:53:32.692Z,6.93
2022-08-01T13:54:35.282Z,6.35
2022-08-01T13:55:38.283Z,5.97
2022-08-01T13:56:40.590Z,10.48
2022-08-01T13:57:42.732Z,5.28
2022-08-01T13:58:45.932Z,6.78
2022-08-01T13:59:48.055Z,6.55
2022-08-01T14:00:50.420Z,6.03
2022-08-01T14:01:52.920Z,8.82
2022-08-01T14:02:58.151Z,10.70
2022-08-01T14:04:02.038Z,7.47
2022-08-01T14:05:04.416Z,4.85
2022-08-01T14:06:08.414Z,6.93
2022-08-01T14:07:14.410Z,5.80
2022-08-01T14:08:19.772Z,9.20
2022-08-01T14:09:24.802Z,5.18
2022-08-01T14:10:27.093Z,8.10
2022-08-01T14:11:32.972Z,6.43
2022-08-01T14:12:39.642Z,5.78
2022-08-01T14:13:48.504Z,6.80
2022-08-01T14:15:54.327Z,6.82
2022-08-01T14:16:57.533Z,5.72
2022-08-01T14:18:01.833Z,6.88
2022-08-01T14:19:04.152Z,7.25
2022-08-01T14:20:06.735Z,6.60
2022-08-01T14:21:11.501Z,5.43
2022-08-01T14:22:13.539Z,6.43
2022-08-01T14:23:15.690Z,8.35
2022-08-01T14:24:17.703Z,6.57
2022-08-01T14:25:24.052Z,5.65
2022-08-01T14:26:41.822Z,7.57
2022-08-01T14:27:43.968Z,7.35
2022-08-01T14:28:48.968Z,6.80
2022-08-01T14:30:03.253Z,11.65
2022-08-01T14:31:07.489Z,6.22
2022-08-01T14:32:09.932Z,7.88
2022-08-01T14:33:13.206Z,6.50
2022-08-01T14:34:15.599Z,5.45
2022-08-01T14:35:17.752Z,10.15
2022-08-01T14:36:30.579Z,7.38
2022-08-01T14:37:38.034Z,5.60
2022-08-01T14:38:41.035Z,5.13
2022-08-01T14:39:53.487Z,7.18
2022-08-01T14:40:56.838Z,9.30
2022-08-01T14:43:29.386Z,6.72
2022-08-01T14:44:34.727Z,5.20
2022-08-01T14:45:38.197Z,6.70